Support overload. We are currently seeing 65% more demand for support then we normally see. We can only assume this is because more people are at home due to the corona crises. Our complete support staff is online and they are working flat out, but it will take some days before we can scale up resources. Please be patient.

Jump to content

Archived

This topic is now archived and is closed to further replies.

alpha117

Weather is now not up to date?!

Recommended Posts

Please tell me I'm wrong!

from NOAA:

EDDF 311520Z 24008KT 9999 FEW035 BKN075 21/14 Q1021 NOSIG

From PFPX:

EDDF 311350Z 27009KT 9999 FEW036 SCT050 BKN180 22/13 Q1020 NOSIG

Clive

Share this post


Link to post
Share on other sites
Guest
This topic is now closed to further replies.

×
×
  • Create New...